Time;durP1;ratioP1;P1;durP2;ratioP2;P2;SDS_P1;SDS_P2;PMS_P1;PMS_P2;Temp;Humidity;BMP_temperature;BMP_pressure;BME280_temperature;BME280_humidity;BME280_pressure;Samples;Min_cycle;Max_cycle;Signal;HPM_P1;HPM_P2
2022/03/17 00:01:15;;;;;;;8.30;3.08;;;;;;;21.64;35.59;102007.34;4198874;28;20070;-68
2022/03/17 00:03:16;;;;;;;3.42;2.65;;;;;;;21.69;35.50;102011.03;4200349;28;20040;-67
2022/03/17 00:05:18;;;;;;;5.35;3.35;;;;;;;21.67;35.35;102007.69;4183463;28;20103;-68
2022/03/17 00:07:20;;;;;;;4.68;3.17;;;;;;;21.64;35.69;102008.19;4175140;28;20044;-67
2022/03/17 00:09:22;;;;;;;4.00;2.95;;;;;;;21.70;35.61;102009.91;4199142;28;20446;-68
2022/03/17 00:11:23;;;;;;;3.53;2.83;;;;;;;21.69;35.23;101999.88;4199104;28;20483;-68
2022/03/17 00:13:26;;;;;;;3.30;2.65;;;;;;;21.72;35.70;102004.09;4198713;28;20040;-68
2022/03/17 00:15:30;;;;;;;3.38;2.72;;;;;;;21.72;35.30;102004.94;4199232;28;20102;-67
2022/03/17 00:17:32;;;;;;;7.50;2.97;;;;;;;21.72;35.54;102010.53;4186689;28;20596;-67
2022/03/17 00:19:34;;;;;;;4.43;2.92;;;;;;;21.71;35.32;102005.19;4198439;28;20048;-66
2022/03/17 00:21:39;;;;;;;4.15;2.83;;;;;;;21.74;35.52;102013.03;4199101;28;20434;-67
2022/03/17 00:23:41;;;;;;;4.28;3.05;;;;;;;21.69;35.49;101999.03;4202175;28;20032;-67
2022/03/17 00:25:42;;;;;;;7.10;3.05;;;;;;;21.71;35.49;102005.19;4197986;28;20044;-67
2022/03/17 00:27:44;;;;;;;3.08;2.60;;;;;;;21.69;35.53;102005.47;4186850;28;20431;-69
2022/03/17 00:29:46;;;;;;;4.53;2.75;;;;;;;21.65;35.64;101992.31;4174922;28;20041;-69
2022/03/17 00:31:48;;;;;;;4.30;2.60;;;;;;;21.74;35.42;101999.09;4186587;28;20041;-69
2022/03/17 00:33:49;;;;;;;2.83;2.53;;;;;;;21.73;35.56;102014.97;4197801;28;20395;-67
2022/03/17 00:35:50;;;;;;;3.35;2.70;;;;;;;21.74;35.61;102011.09;4198601;28;20048;-68
2022/03/17 00:37:52;;;;;;;3.97;2.53;;;;;;;21.74;35.30;102013.88;4194249;28;20040;-67
2022/03/17 00:39:54;;;;;;;4.57;2.70;;;;;;;21.75;35.68;102012.75;4198978;28;20028;-69
2022/03/17 00:41:56;;;;;;;3.92;2.70;;;;;;;21.76;35.38;102008.03;4205698;28;20036;-68
2022/03/17 00:43:57;;;;;;;5.50;2.95;;;;;;;21.77;35.19;102007.78;4194883;28;20049;-67
2022/03/17 00:45:59;;;;;;;4.20;2.65;;;;;;;21.77;35.91;102013.34;4198153;28;20044;-67
2022/03/17 00:48:01;;;;;;;6.13;3.00;;;;;;;21.73;36.15;102006.63;4197812;28;20067;-67
2022/03/17 00:50:04;;;;;;;5.57;2.78;;;;;;;21.76;36.33;102017.25;4197770;28;20094;-67
2022/03/17 00:52:11;;;;;;;80.60;6.75;;;;;;;21.73;36.29;102011.34;4194672;28;20024;-63
2022/03/17 00:54:12;;;;;;;10.93;3.05;;;;;;;21.72;36.30;102021.66;4197906;28;20082;-63
2022/03/17 00:56:14;;;;;;;16.67;3.50;;;;;;;21.70;36.29;102017.44;4197644;28;20105;-62
2022/03/17 00:58:15;;;;;;;9.48;2.85;;;;;;;21.71;36.66;102024.69;4181504;28;20036;-63
2022/03/17 01:00:20;;;;;;;12.60;3.13;;;;;;;21.65;36.32;102009.88;4180980;28;20087;-63
2022/03/17 01:02:22;;;;;;;7.68;3.05;;;;;;;21.67;36.60;102017.94;4191179;28;20048;-63
2022/03/17 01:04:23;;;;;;;5.13;2.88;;;;;;;21.65;36.87;102021.00;4198403;28;20063;-63
2022/03/17 01:06:28;;;;;;;9.00;3.15;;;;;;;21.66;36.53;102025.47;4197878;28;20422;-62
2022/03/17 01:08:29;;;;;;;5.53;2.57;;;;;;;21.66;36.49;102025.47;4197706;28;20487;-63
2022/03/17 01:10:30;;;;;;;4.90;2.70;;;;;;;21.66;36.69;102028.25;4197111;28;20040;-63
2022/03/17 01:12:33;;;;;;;8.27;3.72;;;;;;;21.66;36.58;102027.41;4197119;28;20105;-62
2022/03/17 01:14:34;;;;;;;9.88;2.85;;;;;;;21.67;36.79;102029.09;4197760;28;20036;-62
2022/03/17 01:16:36;;;;;;;7.03;2.78;;;;;;;21.67;36.90;102029.97;4196578;28;20098;-62
2022/03/17 01:18:37;;;;;;;7.13;3.08;;;;;;;21.68;36.69;102025.22;4197949;28;20029;-63
2022/03/17 01:20:38;;;;;;;9.68;2.60;;;;;;;21.68;36.77;102028.00;4205185;28;20020;-63
2022/03/17 01:22:40;;;;;;;5.32;2.70;;;;;;;21.67;36.71;102021.59;4196429;28;20094;-63
2022/03/17 01:24:42;;;;;;;6.95;2.90;;;;;;;21.70;36.24;102035.00;4199020;28;20070;-63
2022/03/17 01:26:45;;;;;;;4.43;2.67;;;;;;;21.66;36.42;102011.53;4195184;28;20048;-63
2022/03/17 01:28:46;;;;;;;6.72;2.85;;;;;;;21.71;36.48;102022.75;4197561;28;20480;-62
2022/03/17 01:30:52;;;;;;;6.13;2.85;;;;;;;21.71;36.59;102024.69;4194324;28;20078;-63
2022/03/17 01:32:54;;;;;;;6.38;2.95;;;;;;;21.69;36.60;102011.03;4196032;28;20117;-63
2022/03/17 01:34:55;;;;;;;4.65;2.60;;;;;;;21.70;36.69;102023.00;4197047;28;20036;-64
2022/03/17 01:36:56;;;;;;;4.88;2.53;;;;;;;21.71;36.50;102013.53;4198657;28;20040;-62
2022/03/17 01:38:58;;;;;;;6.45;2.50;;;;;;;21.68;36.53;102009.34;4197635;28;20036;-63
2022/03/17 01:41:00;;;;;;;5.60;2.92;;;;;;;21.70;36.44;102021.06;4196587;28;20041;-63
2022/03/17 01:43:01;;;;;;;8.77;2.95;;;;;;;21.73;36.31;102028.91;4197733;28;20044;-63
2022/03/17 01:45:04;;;;;;;5.32;2.58;;;;;;;21.73;36.62;102026.13;4197518;28;20040;-66
2022/03/17 01:49:25;;;;;;;10.07;2.50;;;;;;;21.74;36.41;102013.88;4198240;28;20086;-62
2022/03/17 01:51:27;;;;;;;8.60;3.20;;;;;;;21.74;36.62;102018.59;4178319;28;20041;-62
2022/03/17 01:53:28;;;;;;;6.40;2.70;;;;;;;21.73;36.45;102006.63;4197106;28;20032;-64
2022/03/17 01:55:33;;;;;;;5.20;2.60;;;;;;;21.74;36.53;102013.88;4197225;28;20082;-62
2022/03/17 01:57:35;;;;;;;5.13;3.03;;;;;;;21.66;36.34;101999.56;4197329;28;20036;-62
2022/03/17 01:59:38;;;;;;;4.65;2.50;;;;;;;21.74;36.43;102008.28;4197500;28;20093;-63
2022/03/17 02:01:44;;;;;;;7.72;3.03;;;;;;;21.74;36.28;102019.44;4197249;28;20037;-62
2022/03/17 02:03:49;;;;;;;6.57;3.08;;;;;;;21.73;36.59;102017.75;4197334;28;20063;-63
2022/03/17 02:05:51;;;;;;;7.80;2.47;;;;;;;21.72;36.12;102016.09;4197380;28;20098;-62
2022/03/17 02:07:55;;;;;;;7.38;2.70;;;;;;;21.75;36.25;102023.91;4197922;28;20530;-63
2022/03/17 02:09:57;;;;;;;4.20;2.85;;;;;;;21.75;36.23;102018.34;4197094;28;20045;-62
2022/03/17 02:14:23;;;;;;;4.47;2.83;;;;;;;21.75;36.22;102015.53;4212437;28;20085;-63
2022/03/17 02:16:30;;;;;;;5.15;2.33;;;;;;;21.76;36.50;102013.59;4196153;28;20473;-62
2022/03/17 02:18:31;;;;;;;3.25;2.53;;;;;;;21.76;36.64;102014.47;4211649;28;20039;-63
2022/03/17 02:20:33;;;;;;;4.45;2.47;;;;;;;21.73;36.39;102001.06;4213190;28;20085;-63
2022/03/17 02:22:41;;;;;;;7.07;2.70;;;;;;;21.74;36.17;102016.66;4215254;28;20028;-62
2022/03/17 02:27:05;;;;;;;5.18;3.03;;;;;;;21.76;36.22;102005.25;4200927;28;20549;-63
2022/03/17 02:29:06;;;;;;;3.38;2.20;;;;;;;21.74;36.61;102007.47;4212351;28;20032;-62
2022/03/17 02:31:08;;;;;;;5.78;2.60;;;;;;;21.74;36.23;102002.72;4199221;28;20090;-63
2022/03/17 02:33:11;;;;;;;3.72;2.67;;;;;;;21.73;36.57;102000.22;4197597;28;20032;-63
2022/03/17 02:35:16;;;;;;;6.22;2.72;;;;;;;21.62;36.45;101982.50;4200174;28;20083;-63
2022/03/17 02:37:18;;;;;;;6.23;3.23;;;;;;;21.75;36.57;102006.34;4182499;28;20099;-62
2022/03/17 02:39:21;;;;;;;5.05;3.03;;;;;;;21.72;36.54;101999.38;4200377;28;20075;-63
2022/03/17 02:41:23;;;;;;;12.20;3.13;;;;;;;21.76;36.72;101997.75;4199614;28;20098;-64
2022/03/17 02:43:24;;;;;;;5.90;2.95;;;;;;;21.71;36.48;101996.81;4200307;28;20032;-63
2022/03/17 02:45:26;;;;;;;6.88;2.97;;;;;;;21.76;36.75;102008.03;4200063;28;20040;-62
2022/03/17 02:47:31;;;;;;;6.30;3.00;;;;;;;21.75;36.67;102004.41;4199616;28;20032;-63
2022/03/17 02:49:37;;;;;;;5.45;3.05;;;;;;;21.76;36.89;101996.88;4200000;28;20553;-63
2022/03/17 02:51:38;;;;;;;7.97;4.10;;;;;;;21.78;36.65;101995.53;4199948;28;20028;-63
2022/03/17 02:53:40;;;;;;;7.45;3.25;;;;;;;21.78;37.01;101998.31;4199355;28;20837;-63
2022/03/17 02:55:43;;;;;;;4.88;2.78;;;;;;;21.78;36.79;101981.59;4181369;28;20087;-63
2022/03/17 02:57:53;;;;;;;6.43;3.30;;;;;;;21.78;37.02;101987.19;4199417;28;20071;-63
2022/03/17 02:59:57;;;;;;;9.80;3.20;;;;;;;21.81;36.93;101983.88;4199146;28;20098;-63
2022/03/17 03:02:00;;;;;;;4.43;2.72;;;;;;;21.81;36.71;101991.41;4199465;28;20093;-63
2022/03/17 03:04:02;;;;;;;6.90;2.85;;;;;;;21.75;36.71;101975.72;4199694;28;20476;-64
2022/03/17 03:06:05;;;;;;;6.28;3.05;;;;;;;21.74;36.68;101974.88;4199520;28;20040;-63
2022/03/17 03:08:06;;;;;;;5.40;2.83;;;;;;;21.80;36.68;101987.75;4184102;28;20049;-63
2022/03/17 03:10:08;;;;;;;5.70;3.10;;;;;;;21.83;37.09;101989.19;4207129;28;20102;-63
2022/03/17 03:12:10;;;;;;;9.60;3.20;;;;;;;21.83;36.82;101983.59;4202679;28;20033;-63
2022/03/17 03:14:11;;;;;;;4.80;2.75;;;;;;;21.83;37.15;101978.88;4195653;28;20062;-62
2022/03/17 03:16:13;;;;;;;6.03;3.25;;;;;;;21.81;36.74;101986.66;4198908;28;20106;-62
2022/03/17 03:18:15;;;;;;;6.43;3.22;;;;;;;21.83;36.71;101986.38;4199518;28;20102;-62
2022/03/17 03:20:16;;;;;;;7.00;3.28;;;;;;;21.82;36.99;101981.94;4199393;28;20040;-63
2022/03/17 03:22:20;;;;;;;6.45;3.80;;;;;;;21.84;36.91;101985.28;4198752;28;20086;-62
2022/03/17 03:24:22;;;;;;;5.43;2.97;;;;;;;21.84;36.70;101985.28;4199526;28;20041;-63
2022/03/17 03:26:24;;;;;;;8.10;2.95;;;;;;;21.80;36.80;101976.59;4198771;28;20053;-63
2022/03/17 03:28:25;;;;;;;6.82;2.90;;;;;;;21.83;36.80;101989.19;4199256;28;20102;-63
2022/03/17 03:30:26;;;;;;;8.48;2.97;;;;;;;21.83;36.99;101990.00;4198867;28;20098;-63
2022/03/17 03:32:28;;;;;;;8.05;2.90;;;;;;;21.82;36.85;101993.06;4198787;28;20138;-63
2022/03/17 03:34:33;;;;;;;6.05;3.13;;;;;;;21.85;36.92;101998.09;4197911;28;20040;-64
2022/03/17 03:38:55;;;;;;;10.95;3.47;;;;;;;21.88;37.02;101992.00;4199217;28;20081;-63
2022/03/17 03:40:56;;;;;;;8.18;3.00;;;;;;;21.89;36.39;101987.28;4197557;28;20117;-63
2022/03/17 03:42:57;;;;;;;5.78;2.75;;;;;;;21.87;36.82;101990.34;4198846;28;20442;-62
2022/03/17 03:44:59;;;;;;;6.07;3.17;;;;;;;21.90;36.66;101977.81;4198113;28;20036;-63
2022/03/17 03:47:03;;;;;;;7.70;3.10;;;;;;;21.90;36.75;101977.81;4199115;28;20102;-62
2022/03/17 03:49:07;;;;;;;6.77;2.97;;;;;;;21.89;36.46;101976.97;4198699;28;20044;-63
2022/03/17 03:51:08;;;;;;;6.57;3.42;;;;;;;21.90;36.53;101977.81;4199200;28;20097;-62
2022/03/17 03:53:10;;;;;;;6.75;3.22;;;;;;;21.89;36.49;101971.41;4198817;28;20041;-62
2022/03/17 03:55:12;;;;;;;6.22;3.15;;;;;;;21.90;36.83;101963.88;4199490;28;20514;-62
2022/03/17 03:57:13;;;;;;;5.78;3.33;;;;;;;21.91;37.11;101960.00;4198894;28;20052;-63
2022/03/17 03:59:22;;;;;;;6.15;2.70;;;;;;;21.91;36.88;101957.22;4199643;28;20049;-63
2022/03/17 04:01:25;;;;;;;5.50;3.15;;;;;;;21.89;36.51;101942.69;4198628;28;20435;-63
2022/03/17 04:03:29;;;;;;;7.60;3.00;;;;;;;21.90;37.10;101944.38;4197576;28;20102;-62
2022/03/17 04:05:34;;;;;;;5.63;3.00;;;;;;;21.89;36.53;101948.25;4198431;28;20476;-63
2022/03/17 04:07:35;;;;;;;4.55;2.85;;;;;;;21.90;36.41;101939.66;4197947;28;20320;-62
2022/03/17 04:09:39;;;;;;;5.43;2.97;;;;;;;21.91;36.59;101934.94;4198498;28;20082;-63
2022/03/17 04:11:42;;;;;;;8.20;3.10;;;;;;;21.90;36.28;101922.06;4198003;28;20033;-63
2022/03/17 04:13:43;;;;;;;3.60;2.70;;;;;;;21.91;36.78;101924.63;4198730;28;20443;-64
2022/03/17 04:15:44;;;;;;;7.50;3.10;;;;;;;21.91;36.88;101923.78;4197428;28;20114;-64
2022/03/17 04:17:51;;;;;;;6.65;3.15;;;;;;;21.85;36.81;101920.09;4196735;28;20044;-63
2022/03/17 04:19:55;;;;;;;6.63;3.05;;;;;;;21.89;36.34;101923.19;4198355;28;20090;-63
2022/03/17 04:21:57;;;;;;;5.47;3.08;;;;;;;21.91;36.76;101926.56;4198094;28;20040;-63
2022/03/17 04:23:59;;;;;;;5.22;3.05;;;;;;;21.92;36.39;101922.66;4198143;28;20033;-64
2022/03/17 04:26:00;;;;;;;6.05;3.42;;;;;;;21.90;36.51;101922.06;4198182;28;20094;-63
2022/03/17 04:28:04;;;;;;;5.72;2.88;;;;;;;21.89;36.45;101920.41;4197378;28;20098;-64
2022/03/17 04:30:07;;;;;;;6.18;3.15;;;;;;;21.89;36.64;101920.41;4198505;28;20110;-63
2022/03/17 04:32:10;;;;;;;4.53;3.00;;;;;;;21.89;36.61;101917.63;4197922;28;20468;-63
2022/03/17 04:34:12;;;;;;;6.32;3.33;;;;;;;21.87;36.30;101912.31;4198606;28;20032;-63
2022/03/17 04:36:14;;;;;;;4.43;2.83;;;;;;;21.89;36.44;101906.47;4198063;28;20486;-62
2022/03/17 04:38:16;;;;;;;5.72;3.13;;;;;;;21.89;36.59;101906.47;4197266;28;20044;-62
2022/03/17 04:40:18;;;;;;;4.18;3.08;;;;;;;21.90;36.33;101910.94;4198140;28;20049;-63
2022/03/17 04:42:19;;;;;;;7.15;3.00;;;;;;;21.88;36.67;101893.66;4197753;28;20044;-62
2022/03/17 04:44:21;;;;;;;6.72;3.38;;;;;;;21.86;36.23;101904.22;4201558;28;20044;-63
2022/03/17 04:46:25;;;;;;;4.82;2.80;;;;;;;21.87;36.25;101900.34;4197994;28;20090;-63
2022/03/17 04:48:26;;;;;;;4.93;2.97;;;;;;;21.86;36.31;101888.34;4198038;28;20044;-63
2022/03/17 04:50:30;;;;;;;6.47;2.78;;;;;;;21.86;36.16;101888.34;4197884;28;20118;-63
2022/03/17 04:54:51;;;;;;;4.63;3.50;;;;;;;21.85;36.53;101889.44;4198985;28;20059;-62
2022/03/17 04:56:53;;;;;;;4.40;2.85;;;;;;;21.87;36.21;101891.97;4197736;28;20090;-63
2022/03/17 04:58:54;;;;;;;6.80;3.20;;;;;;;21.81;36.54;101885.53;4197250;28;20492;-63
2022/03/17 05:00:57;;;;;;;3.42;2.67;;;;;;;21.82;36.17;101884.41;4197377;28;20101;-63
2022/03/17 05:02:58;;;;;;;4.60;3.10;;;;;;;21.85;36.19;101880.22;4197791;28;20085;-63
2022/03/17 05:05:00;;;;;;;4.13;2.80;;;;;;;21.83;36.56;101880.50;4197641;28;20036;-63
2022/03/17 05:07:04;;;;;;;4.30;2.92;;;;;;;21.83;36.44;101877.72;4198448;28;20459;-63
2022/03/17 05:09:05;;;;;;;4.23;2.90;;;;;;;21.83;36.14;101873.00;4197877;28;20086;-63
2022/03/17 05:11:10;;;;;;;4.18;2.90;;;;;;;21.83;36.26;101877.72;4197510;28;20053;-63
2022/03/17 05:13:12;;;;;;;;;;;;;;;21.81;36.41;101869.63;4180602;28;20114;-63
2022/03/17 05:15:13;;;;;;;4.30;2.85;;;;;;;21.88;36.04;101868.56;4197106;28;20470;-63
2022/03/17 05:17:17;;;;;;;5.13;3.10;;;;;;;21.87;36.33;101878.03;4197808;28;20044;-62
2022/03/17 05:19:21;;;;;;;5.20;2.88;;;;;;;21.84;36.29;101876.59;4197734;28;20036;-62
2022/03/17 05:21:22;;;;;;;4.28;3.10;;;;;;;21.85;35.99;101877.44;4197539;28;20044;-63
2022/03/17 05:23:23;;;;;;;3.72;2.80;;;;;;;21.83;35.92;101872.16;4198143;28;20078;-63
2022/03/17 05:25:25;;;;;;;5.68;2.80;;;;;;;21.78;35.96;101866.53;4197135;28;20113;-61
2022/03/17 05:27:26;;;;;;;4.90;2.97;;;;;;;21.82;36.10;101871.31;4197028;28;20094;-62
2022/03/17 05:29:28;;;;;;;6.13;3.10;;;;;;;21.73;36.22;101863.69;4197423;28;20094;-62
2022/03/17 05:31:29;;;;;;;5.28;3.67;;;;;;;21.80;36.33;101867.94;4197802;28;20472;-64
2022/03/17 05:33:31;;;;;;;5.60;3.47;;;;;;;21.77;35.96;101868.47;4198607;28;20036;-63
2022/03/17 05:35:32;;;;;;;5.05;3.28;;;;;;;21.80;36.11;101867.94;4197209;28;20036;-63
2022/03/17 05:37:35;;;;;;;4.10;3.17;;;;;;;21.79;35.94;101871.84;4197306;28;20075;-63
2022/03/17 05:39:36;;;;;;;5.53;3.10;;;;;;;21.80;35.89;101867.94;4198121;28;20105;-62
2022/03/17 05:41:38;;;;;;;5.72;3.00;;;;;;;21.80;35.82;101865.16;4198819;28;20098;-61
2022/03/17 05:43:39;;;;;;;4.72;2.80;;;;;;;21.80;36.11;101867.94;4199538;28;20044;-64
2022/03/17 05:45:43;;;;;;;3.85;2.85;;;;;;;21.80;35.79;101855.94;4198070;28;20048;-63
2022/03/17 05:47:47;;;;;;;4.28;2.78;;;;;;;21.75;36.03;101853.97;4202038;28;20040;-62
2022/03/17 05:49:48;;;;;;;3.95;3.17;;;;;;;21.80;36.19;101851.22;4196701;28;20040;-62
2022/03/17 05:51:50;;;;;;;3.83;2.65;;;;;;;21.73;35.99;101839.47;4197452;28;20028;-62
2022/03/17 05:53:51;;;;;;;3.28;2.78;;;;;;;21.81;35.80;101841.78;4197522;28;20125;-63
2022/03/17 05:55:55;;;;;;;4.20;2.90;;;;;;;21.78;35.74;101828.38;4197032;28;20044;-62
2022/03/17 05:57:59;;;;;;;3.40;2.75;;;;;;;21.83;35.69;101839.56;4198803;28;20097;-62
2022/03/17 06:00:01;;;;;;;4.13;2.70;;;;;;;21.82;35.66;101832.31;4200636;28;20036;-62
2022/03/17 06:02:04;;;;;;;5.32;2.97;;;;;;;21.82;35.57;101826.72;4200784;28;20273;-62
2022/03/17 06:04:05;;;;;;;5.10;2.95;;;;;;;21.83;36.01;101822.84;4200148;28;20040;-63
2022/03/17 06:06:07;;;;;;;4.40;3.13;;;;;;;21.84;36.00;101823.66;4200420;28;20032;-63
2022/03/17 06:08:09;;;;;;;4.60;2.97;;;;;;;21.82;35.59;101821.16;4200450;28;20044;-62
2022/03/17 06:10:23;;;;;;;4.38;2.92;;;;;;;21.80;35.49;101822.53;4200828;28;20045;-62
2022/03/17 06:12:24;;;;;;;5.10;2.95;;;;;;;21.83;35.69;101822.00;4200565;28;20101;-63
2022/03/17 06:14:27;;;;;;;4.63;2.90;;;;;;;21.83;35.76;101828.41;4203375;28;20044;-62
2022/03/17 06:16:29;;;;;;;5.20;2.97;;;;;;;21.82;35.71;101832.31;4201261;28;20041;-62
2022/03/17 06:18:30;;;;;;;5.82;2.95;;;;;;;21.83;35.43;101828.41;4200717;28;20464;-63
2022/03/17 06:20:36;;;;;;;3.22;2.50;;;;;;;21.82;35.41;101832.31;4200506;28;20443;-63
2022/03/17 06:22:46;;;;;;;3.95;2.70;;;;;;;21.81;35.47;101830.63;4209564;28;20454;-63
2022/03/17 06:24:47;;;;;;;3.95;2.55;;;;;;;21.83;35.52;101833.13;4201169;28;20037;-63
2022/03/17 06:26:51;;;;;;;6.28;2.80;;;;;;;21.79;35.76;101838.41;4200278;28;20037;-62
2022/03/17 06:28:53;;;;;;;4.50;2.77;;;;;;;21.80;35.35;101840.06;4200057;28;20041;-63
2022/03/17 06:30:54;;;;;;;5.35;2.85;;;;;;;21.81;35.41;101830.63;4200025;28;20078;-62
2022/03/17 06:32:56;;;;;;;4.43;2.90;;;;;;;21.80;35.70;101828.94;4199830;28;20094;-62
2022/03/17 06:34:57;;;;;;;4.30;2.55;;;;;;;21.80;35.21;101823.34;4200685;28;20097;-61
2022/03/17 06:36:59;;;;;;;3.60;2.50;;;;;;;21.60;35.16;101800.91;4199848;28;20040;-62
2022/03/17 06:39:02;;;;;;;3.97;2.80;;;;;;;21.77;35.27;101823.91;4207852;28;20073;-62
2022/03/17 06:41:03;;;;;;;3.15;2.50;;;;;;;21.78;35.25;101830.31;4204774;28;20044;-62
2022/03/17 06:43:05;;;;;;;3.65;2.70;;;;;;;21.79;35.38;101826.41;4200004;28;20553;-62
2022/03/17 06:45:07;;;;;;;3.83;2.55;;;;;;;21.74;35.33;101824.44;4199214;28;20037;-63
2022/03/17 06:47:08;;;;;;;4.22;3.05;;;;;;;21.78;35.38;101820.00;4197798;28;20032;-62
2022/03/17 06:49:12;;;;;;;4.00;2.83;;;;;;;21.79;35.23;101815.28;4199323;28;20037;-63
2022/03/17 06:51:13;;;;;;;4.00;2.63;;;;;;;21.77;35.41;101807.19;4199934;28;20097;-63
2022/03/17 06:53:15;;;;;;;3.17;2.55;;;;;;;21.78;35.63;101797.72;4199776;28;20098;-63
2022/03/17 06:55:18;;;;;;;5.15;3.00;;;;;;;21.79;35.20;101796.59;4194195;28;20044;-62
2022/03/17 06:57:20;;;;;;;3.28;2.55;;;;;;;21.79;35.41;101787.41;4200027;28;20085;-64
2022/03/17 06:59:22;;;;;;;4.07;2.55;;;;;;;21.79;35.38;101787.41;4199422;28;20040;-62
2022/03/17 07:01:23;;;;;;;3.80;2.60;;;;;;;21.77;35.31;101770.97;4198915;28;20491;-62
2022/03/17 07:03:25;;;;;;;3.60;2.50;;;;;;;21.78;35.31;101781.00;4199452;28;20114;-63
2022/03/17 07:05:26;;;;;;;4.07;2.70;;;;;;;21.76;35.53;101780.44;4199769;28;20090;-62
2022/03/17 07:07:27;;;;;;;4.07;2.58;;;;;;;21.77;35.25;101770.97;4199976;28;20030;-62
2022/03/17 07:09:29;;;;;;;6.75;2.80;;;;;;;21.76;35.02;101783.22;4198090;28;20045;-62
2022/03/17 07:11:30;;;;;;;4.68;2.80;;;;;;;21.78;35.21;101781.00;4198752;28;20372;-62
2022/03/17 07:13:31;;;;;;;4.43;2.92;;;;;;;21.75;35.44;101775.94;4200287;28;20044;-62
2022/03/17 07:15:34;;;;;;;3.28;2.72;;;;;;;21.76;35.31;101774.00;4214539;28;20070;-62
2022/03/17 07:17:39;;;;;;;3.47;2.50;;;;;;;21.77;35.14;101778.50;4215484;28;20094;-61
2022/03/17 07:19:41;;;;;;;4.25;2.70;;;;;;;21.78;35.19;101775.44;4215737;28;20093;-62
2022/03/17 07:21:43;;;;;;;2.55;2.35;;;;;;;21.79;35.01;101770.69;4214859;28;20070;-62
2022/03/17 07:23:44;;;;;;;3.28;2.30;;;;;;;21.77;35.19;101770.13;4215511;28;20406;-62
2022/03/17 07:25:46;;;;;;;3.10;2.42;;;;;;;21.71;35.37;101757.25;4216526;28;20469;-63
2022/03/17 07:27:48;;;;;;;3.92;2.95;;;;;;;21.74;35.00;101757.56;4215697;28;20052;-63
2022/03/17 07:29:51;;;;;;;3.85;2.92;;;;;;;21.74;35.17;101749.22;4215608;28;20422;-63
2022/03/17 07:32:02;;;;;;;3.60;2.42;;;;;;;21.75;35.20;101744.47;4214863;28;20369;-63
2022/03/17 07:34:04;;;;;;;3.55;2.47;;;;;;;21.71;34.93;101733.03;4213598;28;20037;-63
2022/03/17 07:36:05;;;;;;;3.53;2.63;;;;;;;21.77;35.13;101739.50;4215266;28;20044;-62
2022/03/17 07:38:07;;;;;;;2.92;2.47;;;;;;;21.71;35.24;101723.81;4210608;28;20059;-62
2022/03/17 07:40:09;;;;;;;3.83;2.72;;;;;;;21.75;35.18;101734.16;4198590;28;20090;-62
2022/03/17 07:42:11;;;;;;;3.17;2.28;;;;;;;21.77;34.93;101734.75;4199171;28;20078;-62
2022/03/17 07:44:13;;;;;;;4.90;3.00;;;;;;;21.77;35.15;101736.72;4198902;28;20484;-63
2022/03/17 07:46:18;;;;;;;3.45;2.67;;;;;;;21.76;34.99;101724.72;4199418;28;20032;-64
2022/03/17 07:48:20;;;;;;;4.30;2.65;;;;;;;21.73;34.94;101722.47;4199472;28;20032;-62
2022/03/17 07:50:21;;;;;;;5.18;2.70;;;;;;;21.77;35.29;101729.19;4199324;28;20497;-63
2022/03/17 07:52:24;;;;;;;4.38;2.35;;;;;;;21.76;34.92;101727.50;4198927;28;20377;-63
2022/03/17 07:54:25;;;;;;;3.47;2.58;;;;;;;21.75;35.06;101714.66;4198770;28;20037;-63
2022/03/17 07:56:26;;;;;;;3.67;2.63;;;;;;;21.75;35.01;101719.41;4199158;28;20040;-65
2022/03/17 07:58:28;;;;;;;3.45;2.42;;;;;;;21.76;34.98;101715.50;4198400;28;20110;-63
2022/03/17 08:00:29;;;;;;;3.30;2.65;;;;;;;21.75;35.28;101720.25;4199266;28;20032;-63
2022/03/17 08:02:31;;;;;;;3.15;2.50;;;;;;;21.75;35.08;101713.81;4198188;28;20537;-63
2022/03/17 08:04:32;;;;;;;4.18;2.65;;;;;;;21.76;35.09;101707.16;4198813;28;20036;-63
2022/03/17 08:06:42;;;;;;;4.03;2.58;;;;;;;21.76;35.27;101713.59;4198303;28;20040;-63
2022/03/17 08:08:46;;;;;;;3.33;2.67;;;;;;;21.76;34.86;101702.44;4199184;28;20427;-63
2022/03/17 08:10:47;;;;;;;4.32;2.88;;;;;;;21.77;34.81;101698.53;4198099;28;20040;-63
2022/03/17 08:12:48;;;;;;;2.92;2.58;;;;;;;21.76;34.98;101698.78;4198379;28;20092;-63
2022/03/17 08:14:53;;;;;;;2.80;2.25;;;;;;;21.77;34.94;101701.31;4198898;28;20043;-63
2022/03/17 08:16:55;;;;;;;4.32;2.70;;;;;;;21.76;34.98;101705.22;4196258;28;20492;-63
2022/03/17 08:18:56;;;;;;;2.72;2.38;;;;;;;21.76;34.89;101696.88;4198228;28;20040;-63
2022/03/17 08:20:57;;;;;;;5.30;2.70;;;;;;;21.72;35.11;101684.59;4197472;28;20541;-63
2022/03/17 08:23:04;;;;;;;4.35;2.47;;;;;;;21.71;34.74;101685.66;4197940;28;20036;-63
2022/03/17 08:25:06;;;;;;;5.35;2.50;;;;;;;21.75;35.03;101697.94;4197728;28;20071;-63
2022/03/17 08:27:08;;;;;;;3.88;2.55;;;;;;;21.75;35.20;101689.59;4198769;28;20074;-63
2022/03/17 08:29:09;;;;;;;5.53;2.70;;;;;;;21.76;34.91;101694.09;4197854;28;20098;-63
2022/03/17 08:31:11;;;;;;;3.22;2.50;;;;;;;21.75;34.94;101685.97;4198084;28;20438;-63
2022/03/17 08:33:14;;;;;;;3.95;2.58;;;;;;;21.74;34.92;101685.13;4198155;28;20442;-62
2022/03/17 08:35:17;;;;;;;4.30;2.78;;;;;;;21.74;34.98;101687.91;4198733;28;20082;-63
2022/03/17 08:37:19;;;;;;;3.65;2.50;;;;;;;21.73;35.03;101683.47;4198502;28;20036;-62
2022/03/17 08:39:20;;;;;;;3.97;2.60;;;;;;;21.69;34.72;101665.59;4199480;28;20094;-63
2022/03/17 08:41:23;;;;;;;3.97;2.65;;;;;;;21.75;35.14;101666.47;4208540;28;20095;-63
2022/03/17 08:43:24;;;;;;;4.18;2.55;;;;;;;21.75;34.93;101661.72;4216007;28;20044;-61
2022/03/17 08:50:05;;;;;;;2.78;2.30;;;;;;;21.76;34.99;101648.63;4199474;28;20090;-63
2022/03/17 08:52:10;;;;;;;3.20;2.58;;;;;;;21.75;35.03;101650.59;4203585;28;20062;-62
2022/03/17 08:54:11;;;;;;;4.00;2.60;;;;;;;21.76;35.16;101646.72;4202105;28;20097;-62
2022/03/17 08:56:12;;;;;;;4.22;2.90;;;;;;;21.77;34.69;101650.34;4197739;28;20036;-62
2022/03/17 08:58:16;;;;;;;2.63;2.40;;;;;;;21.75;34.73;101645.03;4206298;28;20120;-62
2022/03/17 09:00:17;;;;;;;3.20;2.22;;;;;;;21.74;34.66;101637.78;4197841;28;20040;-62
2022/03/17 09:02:23;;;;;;;5.65;2.65;;;;;;;21.74;34.69;101634.16;4208921;28;20458;-63
2022/03/17 09:04:24;;;;;;;;;;;;;;;21.73;34.77;101632.50;4197896;28;20048;-61
2022/03/17 09:06:26;;;;;;;3.95;2.60;;;;;;;21.76;34.87;101631.94;4197856;28;19957;-63
2022/03/17 09:08:30;;;;;;;2.53;2.17;;;;;;;21.78;34.53;101644.50;4203448;28;20032;-63
2022/03/17 09:10:34;;;;;;;2.88;2.55;;;;;;;21.77;34.53;101634.47;4197544;28;20546;-63
2022/03/17 09:12:35;;;;;;;4.07;2.60;;;;;;;21.73;35.19;101638.91;4197868;28;20028;-62
2022/03/17 09:14:44;;;;;;;3.22;2.58;;;;;;;21.74;35.04;101636.94;4186808;28;20155;-63
2022/03/17 09:16:48;;;;;;;3.15;2.30;;;;;;;21.74;34.78;101635.00;4198115;28;20028;-64
2022/03/17 09:18:49;;;;;;;2.92;2.47;;;;;;;21.74;34.95;101632.22;4197603;28;20082;-62
2022/03/17 09:20:53;;;;;;;3.10;2.60;;;;;;;21.65;34.70;101614.31;4197452;28;20037;-62
2022/03/17 09:22:56;;;;;;;3.50;2.78;;;;;;;21.72;35.03;101625.25;4195275;28;20048;-62
2022/03/17 09:24:58;;;;;;;3.55;2.65;;;;;;;21.72;34.99;101626.09;4197167;28;20048;-62
2022/03/17 09:26:59;;;;;;;3.50;2.70;;;;;;;21.62;34.69;101631.56;4197233;28;20082;-62
2022/03/17 09:29:01;;;;;;;3.38;2.67;;;;;;;21.71;34.85;101641.09;4197671;28;20044;-62
2022/03/17 09:31:02;;;;;;;4.38;2.67;;;;;;;21.70;34.83;101639.44;4197672;28;20024;-62
2022/03/17 09:33:05;;;;;;;3.90;2.30;;;;;;;21.66;34.91;101632.72;4196825;28;20534;-62
2022/03/17 09:35:07;;;;;;;2.78;2.33;;;;;;;21.71;34.78;101629.13;4197780;28;20098;-63
2022/03/17 09:37:08;;;;;;;4.18;2.80;;;;;;;21.70;34.67;101628.28;4197551;28;20036;-62
2022/03/17 09:41:33;;;;;;;4.93;2.92;;;;;;;21.68;35.11;101622.16;4198375;28;20102;-63
2022/03/17 09:43:34;;;;;;;3.40;2.72;;;;;;;21.70;35.19;101622.72;4197579;28;20041;-62
2022/03/17 09:45:35;;;;;;;2.95;2.42;;;;;;;21.71;35.01;101617.97;4197605;28;20041;-62
2022/03/17 09:47:40;;;;;;;3.35;2.55;;;;;;;21.70;34.74;101619.91;4197624;28;20541;-62